Portada
METAR-TAF:

METAR-TAF

Aeropuertos :

Aeropuerto Internacional de Jartum

Jartum, Sudán

latitud: 15-36N, longitud: 032-33E, altitud: 382 m

Observación

El informe se hizo hace 25 minutos, a las 13:00 UTC
Viento 13 kt del norte
Temperatura 31°C
Humedad 11%
Presión 1012 hPa
Visibilidad 10 km o más
sin nubes por debajo de 1500 m y sin presencia de cumulonimbus.

METAR: HSSS 151300Z 35013KT CAVOK 31/M03 Q1012 NOSIG

Hora: 16:25 (13:25 UTC)

Pronóstico

El informe se hizo hace 2 horas y 25 minutos, a las 11:00 UTC
Pronóstico válido del 15 a las 12 UTC al 16 a las 18 UTC
Viento 14 kt del norte-noreste con ráfagas de 24 kt
Visibilidad 10 km o más
sin nubes por debajo de 1500 m y sin presencia de cumulonimbus.
Temporalmente
del 16 a las 06 UTC al 16 a las 09 UTC
Visibilidad: 6000 m

TAF: HSSS 151100Z 1512/1618 03014G24KT CAVOK TEMPO 1606/1609 6000 NSC

Observaciones y pronósticos meteorológicos de más de 4000 aeropuertos (mensajes METAR y TAF).

Los puntos amarillos y rojos representan las estaciones disponibles.

Ponga el ratón en el punto deseado para ver el nombre de la estación.

Haga clic para ver las observaciones y los pronósticos meteorológicos.

Para cambiar el mapa : haga clic en los botones verdes con una cruz de color negro para hacer un zoom, en el botón verde con un guión para alejar o en las flechas verdes para mapas adyacentes.


METAR-TAF: